sensor_id;sensor_type;location;lat;lon;timestamp;pressure;altitude;pressure_sealevel;temperature;humidity
71361;BME280;59166;48.908;1.870;2023-04-23T00:03:12;99569.94;;;11.45;91.82
71361;BME280;59166;48.908;1.870;2023-04-23T00:08:17;99572.97;;;11.38;92.26
71361;BME280;59166;48.908;1.870;2023-04-23T00:13:18;99570.06;;;11.29;92.02
71361;BME280;59166;48.908;1.870;2023-04-23T00:18:19;99565.22;;;11.21;92.20
71361;BME280;59166;48.908;1.870;2023-04-23T00:23:21;99562.06;;;11.14;92.02
71361;BME280;59166;48.908;1.870;2023-04-23T00:28:22;99569.94;;;11.11;91.93
71361;BME280;59166;48.908;1.870;2023-04-23T00:33:23;99564.03;;;11.04;92.01
71361;BME280;59166;48.908;1.870;2023-04-23T00:38:26;99563.06;;;10.90;92.90
71361;BME280;59166;48.908;1.870;2023-04-23T00:43:27;99557.97;;;10.78;93.75
71361;BME280;59166;48.908;1.870;2023-04-23T00:48:28;99555.53;;;10.81;93.83
71361;BME280;59166;48.908;1.870;2023-04-23T00:53:30;99548.81;;;10.74;93.90
71361;BME280;59166;48.908;1.870;2023-04-23T00:58:32;99546.13;;;10.69;93.91
71361;BME280;59166;48.908;1.870;2023-04-23T01:03:34;99532.69;;;10.54;95.10
71361;BME280;59166;48.908;1.870;2023-04-23T01:08:37;99517.63;;;10.48;95.65
71361;BME280;59166;48.908;1.870;2023-04-23T01:13:40;99508.00;;;10.31;97.30
71361;BME280;59166;48.908;1.870;2023-04-23T01:18:42;99512.38;;;10.22;97.56
71361;BME280;59166;48.908;1.870;2023-04-23T01:23:44;99508.59;;;10.18;98.34
71361;BME280;59166;48.908;1.870;2023-04-23T01:28:45;99508.09;;;10.06;99.22
71361;BME280;59166;48.908;1.870;2023-04-23T01:33:46;99507.00;;;10.07;99.42
71361;BME280;59166;48.908;1.870;2023-04-23T01:38:51;99495.16;;;10.03;99.49
71361;BME280;59166;48.908;1.870;2023-04-23T01:43:52;99495.19;;;9.93;100.00
71361;BME280;59166;48.908;1.870;2023-04-23T01:48:53;99480.13;;;9.87;100.00
71361;BME280;59166;48.908;1.870;2023-04-23T01:53:55;99479.59;;;9.80;100.00
71361;BME280;59166;48.908;1.870;2023-04-23T01:58:56;99469.91;;;9.74;100.00
71361;BME280;59166;48.908;1.870;2023-04-23T02:03:57;99473.44;;;9.69;100.00
71361;BME280;59166;48.908;1.870;2023-04-23T02:08:59;99480.72;;;9.64;100.00
71361;BME280;59166;48.908;1.870;2023-04-23T02:14:00;99478.03;;;9.64;100.00
71361;BME280;59166;48.908;1.870;2023-04-23T02:19:02;99471.88;;;9.58;100.00
71361;BME280;59166;48.908;1.870;2023-04-23T02:24:04;99478.59;;;9.56;100.00
71361;BME280;59166;48.908;1.870;2023-04-23T02:29:05;99481.31;;;9.51;100.00
71361;BME280;59166;48.908;1.870;2023-04-23T02:34:06;99471.63;;;9.45;100.00
71361;BME280;59166;48.908;1.870;2023-04-23T02:39:08;99467.31;;;9.49;100.00
71361;BME280;59166;48.908;1.870;2023-04-23T02:44:09;99472.19;;;9.42;100.00
71361;BME280;59166;48.908;1.870;2023-04-23T02:49:10;99465.44;;;9.34;100.00
71361;BME280;59166;48.908;1.870;2023-04-23T02:54:13;99456.53;;;9.33;100.00
71361;BME280;59166;48.908;1.870;2023-04-23T02:59:13;99461.38;;;9.37;100.00
71361;BME280;59166;48.908;1.870;2023-04-23T03:04:14;99456.53;;;9.33;100.00
71361;BME280;59166;48.908;1.870;2023-04-23T03:09:17;99462.47;;;9.41;100.00
71361;BME280;59166;48.908;1.870;2023-04-23T03:14:17;99466.22;;;9.50;100.00
71361;BME280;59166;48.908;1.870;2023-04-23T03:19:18;99457.84;;;9.56;100.00
71361;BME280;59166;48.908;1.870;2023-04-23T03:24:21;99452.69;;;9.60;100.00
71361;BME280;59166;48.908;1.870;2023-04-23T03:29:21;99452.69;;;9.60;100.00
71361;BME280;59166;48.908;1.870;2023-04-23T03:34:22;99445.41;;;9.65;100.00
71361;BME280;59166;48.908;1.870;2023-04-23T03:39:24;99432.75;;;9.61;100.00
71361;BME280;59166;48.908;1.870;2023-04-23T03:44:25;99428.16;;;9.61;100.00
71361;BME280;59166;48.908;1.870;2023-04-23T03:49:26;99431.66;;;9.67;100.00
71361;BME280;59166;48.908;1.870;2023-04-23T03:54:28;99429.75;;;9.72;100.00
71361;BME280;59166;48.908;1.870;2023-04-23T03:59:29;99419.75;;;9.73;100.00
71361;BME280;59166;48.908;1.870;2023-04-23T04:04:31;99411.91;;;9.76;100.00
71361;BME280;59166;48.908;1.870;2023-04-23T04:09:33;99409.22;;;9.76;100.00
71361;BME280;59166;48.908;1.870;2023-04-23T04:14:34;99394.91;;;9.81;100.00
71361;BME280;59166;48.908;1.870;2023-04-23T04:19:35;99387.91;;;9.80;100.00
71361;BME280;59166;48.908;1.870;2023-04-23T04:24:37;99378.72;;;9.81;100.00
71361;BME280;59166;48.908;1.870;2023-04-23T04:29:38;99376.53;;;9.83;100.00
71361;BME280;59166;48.908;1.870;2023-04-23T04:34:39;99367.13;;;9.80;100.00
71361;BME280;59166;48.908;1.870;2023-04-23T04:39:41;99362.03;;;9.79;100.00
71361;BME280;59166;48.908;1.870;2023-04-23T04:44:42;99360.38;;;9.83;100.00
71361;BME280;59166;48.908;1.870;2023-04-23T04:49:45;99361.19;;;9.83;100.00
71361;BME280;59166;48.908;1.870;2023-04-23T04:54:48;99361.19;;;9.83;100.00
71361;BME280;59166;48.908;1.870;2023-04-23T04:59:49;99352.78;;;9.90;100.00
71361;BME280;59166;48.908;1.870;2023-04-23T05:04:50;99354.97;;;9.83;100.00
71361;BME280;59166;48.908;1.870;2023-04-23T05:09:52;99358.22;;;9.80;100.00
71361;BME280;59166;48.908;1.870;2023-04-23T05:14:53;99352.28;;;9.83;100.00
71361;BME280;59166;48.908;1.870;2023-04-23T05:19:54;99352.56;;;9.81;100.00
71361;BME280;59166;48.908;1.870;2023-04-23T05:24:56;99353.13;;;9.78;100.00
71361;BME280;59166;48.908;1.870;2023-04-23T05:29:57;99350.75;;;9.72;100.00
71361;BME280;59166;48.908;1.870;2023-04-23T05:34:58;99342.13;;;9.65;100.00
71361;BME280;59166;48.908;1.870;2023-04-23T05:40:00;99345.09;;;9.63;100.00
71361;BME280;59166;48.908;1.870;2023-04-23T05:45:01;99349.66;;;9.68;100.00
71361;BME280;59166;48.908;1.870;2023-04-23T05:50:03;99343.47;;;9.67;100.00
71361;BME280;59166;48.908;1.870;2023-04-23T05:55:06;99348.59;;;9.69;100.00
71361;BME280;59166;48.908;1.870;2023-04-23T06:00:07;99343.47;;;9.67;100.00
71361;BME280;59166;48.908;1.870;2023-04-23T06:05:09;99342.91;;;9.70;100.00
71361;BME280;59166;48.908;1.870;2023-04-23T06:10:12;99342.09;;;9.70;100.00
71361;BME280;59166;48.908;1.870;2023-04-23T06:15:16;99348.88;;;9.67;100.00
71361;BME280;59166;48.908;1.870;2023-04-23T06:20:18;99340.50;;;9.69;100.00
71361;BME280;59166;48.908;1.870;2023-04-23T06:25:20;99352.31;;;9.73;100.00
71361;BME280;59166;48.908;1.870;2023-04-23T06:30:22;99341.84;;;9.71;100.00
71361;BME280;59166;48.908;1.870;2023-04-23T06:35:23;99340.47;;;9.74;100.00
71361;BME280;59166;48.908;1.870;2023-04-23T06:40:25;99340.25;;;9.65;100.00
71361;BME280;59166;48.908;1.870;2023-04-23T06:45:29;99333.81;;;9.56;100.00
71361;BME280;59166;48.908;1.870;2023-04-23T06:50:57;99315.75;;;9.57;100.00
71361;BME280;59166;48.908;1.870;2023-04-23T06:55:59;99310.91;;;9.59;100.00
71361;BME280;59166;48.908;1.870;2023-04-23T07:01:00;99298.50;;;9.58;100.00
71361;BME280;59166;48.908;1.870;2023-04-23T07:06:02;99285.53;;;9.60;100.00
71361;BME280;59166;48.908;1.870;2023-04-23T07:11:05;99288.22;;;9.65;100.00
71361;BME280;59166;48.908;1.870;2023-04-23T07:16:06;99269.84;;;9.67;100.00
71361;BME280;59166;48.908;1.870;2023-04-23T07:21:07;99273.88;;;9.69;100.00
71361;BME280;59166;48.908;1.870;2023-04-23T07:26:09;99280.56;;;9.82;100.00
71361;BME280;59166;48.908;1.870;2023-04-23T07:31:10;99268.59;;;9.93;100.00
71361;BME280;59166;48.908;1.870;2023-04-23T07:36:11;99256.16;;;9.97;100.00
71361;BME280;59166;48.908;1.870;2023-04-23T07:41:14;99235.84;;;10.05;100.00
71361;BME280;59166;48.908;1.870;2023-04-23T07:46:15;99230.47;;;10.05;100.00
71361;BME280;59166;48.908;1.870;2023-04-23T07:51:16;99218.03;;;10.09;100.00
71361;BME280;59166;48.908;1.870;2023-04-23T07:56:19;99213.28;;;10.24;100.00
71361;BME280;59166;48.908;1.870;2023-04-23T08:01:20;99191.00;;;10.38;100.00
71361;BME280;59166;48.908;1.870;2023-04-23T08:06:21;99175.00;;;10.46;100.00
71361;BME280;59166;48.908;1.870;2023-04-23T08:11:23;99148.94;;;10.60;100.00
71361;BME280;59166;48.908;1.870;2023-04-23T08:16:24;99139.03;;;10.74;100.00
71361;BME280;59166;48.908;1.870;2023-04-23T08:21:25;99126.78;;;10.82;100.00
71361;BME280;59166;48.908;1.870;2023-04-23T08:26:27;99113.50;;;10.85;100.00
71361;BME280;59166;48.908;1.870;2023-04-23T08:31:28;99099.81;;;11.01;100.00
71361;BME280;59166;48.908;1.870;2023-04-23T08:36:29;99094.88;;;11.03;100.00
71361;BME280;59166;48.908;1.870;2023-04-23T08:41:34;99068.38;;;11.23;100.00
71361;BME280;59166;48.908;1.870;2023-04-23T08:46:41;99052.75;;;11.66;100.00
71361;BME280;59166;48.908;1.870;2023-04-23T08:51:48;99048.56;;;11.74;100.00
71361;BME280;59166;48.908;1.870;2023-04-23T08:56:52;99028.53;;;11.75;100.00
71361;BME280;59166;48.908;1.870;2023-04-23T09:01:55;99026.81;;;11.79;100.00
71361;BME280;59166;48.908;1.870;2023-04-23T09:06:56;99009.69;;;11.97;100.00
71361;BME280;59166;48.908;1.870;2023-04-23T09:11:58;99001.38;;;12.07;100.00
71361;BME280;59166;48.908;1.870;2023-04-23T09:16:59;98994.53;;;12.23;100.00
71361;BME280;59166;48.908;1.870;2023-04-23T09:22:01;98991.16;;;12.04;100.00
71361;BME280;59166;48.908;1.870;2023-04-23T09:27:03;98977.44;;;11.87;100.00
71361;BME280;59166;48.908;1.870;2023-04-23T09:32:06;98981.44;;;11.76;100.00
71361;BME280;59166;48.908;1.870;2023-04-23T09:37:07;98969.09;;;11.70;100.00
71361;BME280;59166;48.908;1.870;2023-04-23T09:42:10;98961.31;;;11.82;100.00
71361;BME280;59166;48.908;1.870;2023-04-23T09:47:10;98936.84;;;11.87;100.00
71361;BME280;59166;48.908;1.870;2023-04-23T09:52:11;98913.06;;;11.98;100.00
71361;BME280;59166;48.908;1.870;2023-04-23T09:57:14;98896.16;;;11.92;100.00
71361;BME280;59166;48.908;1.870;2023-04-23T10:02:15;98907.88;;;12.01;100.00
71361;BME280;59166;48.908;1.870;2023-04-23T10:07:17;98884.75;;;13.28;100.00
71361;BME280;59166;48.908;1.870;2023-04-23T10:12:20;98879.59;;;13.18;100.00
71361;BME280;59166;48.908;1.870;2023-04-23T10:17:21;98875.88;;;12.83;100.00
71361;BME280;59166;48.908;1.870;2023-04-23T10:22:24;98862.97;;;12.58;100.00
71361;BME280;59166;48.908;1.870;2023-04-23T10:27:30;98851.41;;;12.44;100.00
71361;BME280;59166;48.908;1.870;2023-04-23T10:32:32;98835.09;;;12.58;100.00
71361;BME280;59166;48.908;1.870;2023-04-23T10:37:34;98820.06;;;12.52;100.00
71361;BME280;59166;48.908;1.870;2023-04-23T10:42:37;98805.44;;;12.30;100.00
71361;BME280;59166;48.908;1.870;2023-04-23T10:47:38;98801.69;;;12.26;100.00
71361;BME280;59166;48.908;1.870;2023-04-23T10:52:42;98777.09;;;12.14;100.00
71361;BME280;59166;48.908;1.870;2023-04-23T10:57:57;98766.28;;;12.14;100.00
71361;BME280;59166;48.908;1.870;2023-04-23T11:03:01;98750.50;;;12.16;100.00
71361;BME280;59166;48.908;1.870;2023-04-23T11:08:03;98732.88;;;12.19;100.00
71361;BME280;59166;48.908;1.870;2023-04-23T11:13:22;98716.06;;;12.08;100.00
71361;BME280;59166;48.908;1.870;2023-04-23T11:18:23;98725.44;;;12.02;100.00
71361;BME280;59166;48.908;1.870;2023-04-23T11:23:28;98715.81;;;11.96;100.00
71361;BME280;59166;48.908;1.870;2023-04-23T11:28:32;98724.69;;;11.88;100.00
71361;BME280;59166;48.908;1.870;2023-04-23T11:33:36;98704.81;;;11.93;100.00
71361;BME280;59166;48.908;1.870;2023-04-23T11:38:38;98724.06;;;12.35;100.00
71361;BME280;59166;48.908;1.870;2023-04-23T11:43:41;98708.97;;;12.43;100.00
71361;BME280;59166;48.908;1.870;2023-04-23T11:48:42;98716.78;;;12.45;100.00
71361;BME280;59166;48.908;1.870;2023-04-23T11:53:45;98725.09;;;12.48;100.00
71361;BME280;59166;48.908;1.870;2023-04-23T11:58:47;98717.00;;;12.57;100.00
71361;BME280;59166;48.908;1.870;2023-04-23T12:03:57;98727.00;;;12.48;100.00
71361;BME280;59166;48.908;1.870;2023-04-23T12:08:58;98733.75;;;12.59;100.00
71361;BME280;59166;48.908;1.870;2023-04-23T12:14:01;98767.66;;;12.87;100.00
71361;BME280;59166;48.908;1.870;2023-04-23T12:19:02;98790.53;;;13.03;99.55
71361;BME280;59166;48.908;1.870;2023-04-23T12:24:03;98786.31;;;12.88;87.02
71361;BME280;59166;48.908;1.870;2023-04-23T12:29:06;98780.69;;;12.76;86.56
71361;BME280;59166;48.908;1.870;2023-04-23T12:34:09;98809.59;;;12.59;88.94
71361;BME280;59166;48.908;1.870;2023-04-23T12:39:20;98802.53;;;12.49;90.57
71361;BME280;59166;48.908;1.870;2023-04-23T12:44:24;98817.53;;;12.33;92.29
71361;BME280;59166;48.908;1.870;2023-04-23T12:49:25;98836.94;;;12.13;90.90
71361;BME280;59166;48.908;1.870;2023-04-23T12:54:27;98845.34;;;12.25;92.10
71361;BME280;59166;48.908;1.870;2023-04-23T12:59:31;98865.53;;;12.63;90.41
71361;BME280;59166;48.908;1.870;2023-04-23T13:04:33;98862.28;;;12.75;88.08
71361;BME280;59166;48.908;1.870;2023-04-23T13:09:34;98868.03;;;12.51;88.14
71361;BME280;59166;48.908;1.870;2023-04-23T13:14:37;98897.75;;;12.43;93.97
71361;BME280;59166;48.908;1.870;2023-04-23T13:19:39;98907.59;;;12.25;93.65
71361;BME280;59166;48.908;1.870;2023-04-23T13:24:40;98924.16;;;12.23;93.82
71361;BME280;59166;48.908;1.870;2023-04-23T13:29:42;98937.69;;;13.04;90.39
71361;BME280;59166;48.908;1.870;2023-04-23T13:34:43;98925.75;;;13.05;93.66
71361;BME280;59166;48.908;1.870;2023-04-23T13:39:44;98956.84;;;12.76;90.75
71361;BME280;59166;48.908;1.870;2023-04-23T13:44:46;98965.44;;;12.78;88.77
71361;BME280;59166;48.908;1.870;2023-04-23T13:49:49;98969.81;;;12.88;85.53
71361;BME280;59166;48.908;1.870;2023-04-23T13:54:50;98987.38;;;12.90;84.64
71361;BME280;59166;48.908;1.870;2023-04-23T13:59:52;98987.06;;;12.92;83.85
71361;BME280;59166;48.908;1.870;2023-04-23T14:04:53;98995.75;;;13.25;82.48
71361;BME280;59166;48.908;1.870;2023-04-23T14:09:54;98986.47;;;13.70;79.60
71361;BME280;59166;48.908;1.870;2023-04-23T14:14:56;98999.66;;;13.94;77.10
71361;BME280;59166;48.908;1.870;2023-04-23T14:19:57;99000.22;;;14.30;77.13
71361;BME280;59166;48.908;1.870;2023-04-23T14:25:02;99001.56;;;14.84;73.74
71361;BME280;59166;48.908;1.870;2023-04-23T14:30:13;99010.41;;;15.16;72.98
71361;BME280;59166;48.908;1.870;2023-04-23T14:35:15;99004.94;;;15.24;73.48
71361;BME280;59166;48.908;1.870;2023-04-23T14:40:15;99002.56;;;15.23;76.30
71361;BME280;59166;48.908;1.870;2023-04-23T14:45:18;99007.50;;;15.04;72.05
71361;BME280;59166;48.908;1.870;2023-04-23T14:50:19;99012.16;;;15.84;74.99
71361;BME280;59166;48.908;1.870;2023-04-23T14:55:20;99001.31;;;16.13;70.28
71361;BME280;59166;48.908;1.870;2023-04-23T15:00:23;99001.72;;;15.86;70.77
71361;BME280;59166;48.908;1.870;2023-04-23T15:05:24;98995.91;;;15.58;71.86
71361;BME280;59166;48.908;1.870;2023-04-23T15:10:25;98993.47;;;16.41;68.89
71361;BME280;59166;48.908;1.870;2023-04-23T15:15:37;99007.06;;;16.20;68.48
71361;BME280;59166;48.908;1.870;2023-04-23T15:20:38;98991.41;;;16.59;67.68
71361;BME280;59166;48.908;1.870;2023-04-23T15:25:39;98982.63;;;15.94;68.48
71361;BME280;59166;48.908;1.870;2023-04-23T15:30:41;98981.53;;;15.40;70.02
71361;BME280;59166;48.908;1.870;2023-04-23T15:35:42;98987.84;;;14.89;76.91
71361;BME280;59166;48.908;1.870;2023-04-23T15:40:43;98981.75;;;14.58;78.66
71361;BME280;59166;48.908;1.870;2023-04-23T15:45:45;99001.38;;;14.38;81.43
71361;BME280;59166;48.908;1.870;2023-04-23T15:50:46;99022.31;;;13.89;86.03
71361;BME280;59166;48.908;1.870;2023-04-23T15:55:48;99051.09;;;13.46;91.80
71361;BME280;59166;48.908;1.870;2023-04-23T16:00:50;99049.94;;;13.16;98.14
71361;BME280;59166;48.908;1.870;2023-04-23T16:05:51;99048.72;;;14.06;98.86
71361;BME280;59166;48.908;1.870;2023-04-23T16:10:52;99046.44;;;14.39;96.98
71361;BME280;59166;48.908;1.870;2023-04-23T16:15:54;99041.59;;;15.18;98.25
71361;BME280;59166;48.908;1.870;2023-04-23T16:20:55;99039.75;;;14.54;95.69
71361;BME280;59166;48.908;1.870;2023-04-23T16:25:56;99043.56;;;13.96;97.46
71361;BME280;59166;48.908;1.870;2023-04-23T16:30:58;99043.22;;;13.89;97.20
71361;BME280;59166;48.908;1.870;2023-04-23T16:35:59;99050.81;;;13.78;98.38
71361;BME280;59166;48.908;1.870;2023-04-23T16:41:00;99047.84;;;13.58;100.00
71361;BME280;59166;48.908;1.870;2023-04-23T16:46:02;99043.00;;;13.55;100.00
71361;BME280;59166;48.908;1.870;2023-04-23T16:51:03;99049.63;;;13.40;100.00
71361;BME280;59166;48.908;1.870;2023-04-23T16:56:04;99050.53;;;13.35;100.00
71361;BME280;59166;48.908;1.870;2023-04-23T17:01:07;99041.19;;;13.19;100.00
71361;BME280;59166;48.908;1.870;2023-04-23T17:06:09;99043.72;;;13.16;100.00
71361;BME280;59166;48.908;1.870;2023-04-23T17:11:10;99054.66;;;13.11;100.00
71361;BME280;59166;48.908;1.870;2023-04-23T17:16:12;99045.66;;;13.02;100.00
71361;BME280;59166;48.908;1.870;2023-04-23T17:21:13;99056.22;;;13.03;100.00
71361;BME280;59166;48.908;1.870;2023-04-23T17:26:14;99066.19;;;12.80;98.61
71361;BME280;59166;48.908;1.870;2023-04-23T17:31:16;99090.75;;;12.34;95.87
71361;BME280;59166;48.908;1.870;2023-04-23T17:36:17;99098.75;;;12.12;96.15
71361;BME280;59166;48.908;1.870;2023-04-23T17:41:18;99101.72;;;11.97;94.68
71361;BME280;59166;48.908;1.870;2023-04-23T17:46:20;99100.81;;;11.88;99.19
71361;BME280;59166;48.908;1.870;2023-04-23T17:51:21;99110.78;;;11.74;100.00
71361;BME280;59166;48.908;1.870;2023-04-23T17:56:23;99111.88;;;11.73;100.00
71361;BME280;59166;48.908;1.870;2023-04-23T18:01:25;99112.41;;;11.75;100.00
71361;BME280;59166;48.908;1.870;2023-04-23T18:06:26;99123.72;;;11.77;100.00
71361;BME280;59166;48.908;1.870;2023-04-23T18:11:27;99128.03;;;11.78;100.00
71361;BME280;59166;48.908;1.870;2023-04-23T18:16:29;99131.56;;;11.78;100.00
71361;BME280;59166;48.908;1.870;2023-04-23T18:21:30;99136.06;;;11.83;100.00
71361;BME280;59166;48.908;1.870;2023-04-23T18:26:31;99128.53;;;11.80;100.00
71361;BME280;59166;48.908;1.870;2023-04-23T18:31:33;99129.34;;;11.80;100.00
71361;BME280;59166;48.908;1.870;2023-04-23T18:36:36;99152.41;;;11.78;100.00
71361;BME280;59166;48.908;1.870;2023-04-23T18:41:37;99156.44;;;11.62;100.00
71361;BME280;59166;48.908;1.870;2023-04-23T18:46:40;99172.75;;;11.57;100.00
71361;BME280;59166;48.908;1.870;2023-04-23T18:51:43;99174.75;;;11.51;100.00
71361;BME280;59166;48.908;1.870;2023-04-23T18:56:45;99174.59;;;11.43;100.00
71361;BME280;59166;48.908;1.870;2023-04-23T19:01:47;99194.25;;;11.29;100.00
71361;BME280;59166;48.908;1.870;2023-04-23T19:06:48;99211.78;;;11.13;100.00
71361;BME280;59166;48.908;1.870;2023-04-23T19:11:49;99226.28;;;10.99;100.00
71361;BME280;59166;48.908;1.870;2023-04-23T19:16:52;99226.69;;;10.87;100.00
71361;BME280;59166;48.908;1.870;2023-04-23T19:21:53;99218.63;;;10.82;100.00
71361;BME280;59166;48.908;1.870;2023-04-23T19:26:54;99226.81;;;10.77;100.00
71361;BME280;59166;48.908;1.870;2023-04-23T19:31:57;99244.75;;;10.63;100.00
71361;BME280;59166;48.908;1.870;2023-04-23T19:36:58;99256.47;;;10.53;100.00
71361;BME280;59166;48.908;1.870;2023-04-23T19:41:59;99261.66;;;10.50;100.00
71361;BME280;59166;48.908;1.870;2023-04-23T19:47:01;99260.44;;;10.32;100.00
71361;BME280;59166;48.908;1.870;2023-04-23T19:52:02;99272.22;;;10.12;100.00
71361;BME280;59166;48.908;1.870;2023-04-23T19:57:04;99261.03;;;9.95;99.33
71361;BME280;59166;48.908;1.870;2023-04-23T20:02:07;99272.38;;;9.92;97.01
71361;BME280;59166;48.908;1.870;2023-04-23T20:07:07;99285.13;;;9.81;95.60
71361;BME280;59166;48.908;1.870;2023-04-23T20:12:08;99287.34;;;9.69;93.47
71361;BME280;59166;48.908;1.870;2023-04-23T20:17:11;99302.00;;;9.58;90.22
71361;BME280;59166;48.908;1.870;2023-04-23T20:22:12;99307.72;;;9.47;91.35
71361;BME280;59166;48.908;1.870;2023-04-23T20:27:13;99314.50;;;9.34;91.17
71361;BME280;59166;48.908;1.870;2023-04-23T20:32:15;99316.41;;;9.33;90.53
71361;BME280;59166;48.908;1.870;2023-04-23T20:37:16;99323.66;;;9.38;89.92
71361;BME280;59166;48.908;1.870;2023-04-23T20:42:17;99323.13;;;9.41;90.80
71361;BME280;59166;48.908;1.870;2023-04-23T20:47:20;99342.25;;;9.45;88.95
71361;BME280;59166;48.908;1.870;2023-04-23T20:52:21;99343.25;;;9.54;86.55
71361;BME280;59166;48.908;1.870;2023-04-23T20:57:22;99343.53;;;9.52;86.30
71361;BME280;59166;48.908;1.870;2023-04-23T21:02:25;99337.91;;;9.49;86.69
71361;BME280;59166;48.908;1.870;2023-04-23T21:07:26;99354.06;;;9.54;86.09
71361;BME280;59166;48.908;1.870;2023-04-23T21:12:27;99364.84;;;9.54;85.99
71361;BME280;59166;48.908;1.870;2023-04-23T21:17:29;99368.63;;;9.48;87.21
71361;BME280;59166;48.908;1.870;2023-04-23T21:22:30;99370.00;;;9.45;87.15
71361;BME280;59166;48.908;1.870;2023-04-23T21:27:31;99371.38;;;9.38;86.89
71361;BME280;59166;48.908;1.870;2023-04-23T21:32:34;99362.78;;;9.25;87.09
71361;BME280;59166;48.908;1.870;2023-04-23T21:37:35;99380.03;;;9.19;88.06
71361;BME280;59166;48.908;1.870;2023-04-23T21:42:36;99381.16;;;9.03;89.62
71361;BME280;59166;48.908;1.870;2023-04-23T21:47:40;99383.84;;;8.98;89.27
71361;BME280;59166;48.908;1.870;2023-04-23T21:52:41;99387.88;;;8.86;89.20
71361;BME280;59166;48.908;1.870;2023-04-23T21:57:42;99395.44;;;8.83;89.72
71361;BME280;59166;48.908;1.870;2023-04-23T22:02:45;99396.78;;;8.81;90.93
71361;BME280;59166;48.908;1.870;2023-04-23T22:07:47;99396.81;;;8.71;90.08
71361;BME280;59166;48.908;1.870;2023-04-23T22:12:49;99396.00;;;8.60;91.62
71361;BME280;59166;48.908;1.870;2023-04-23T22:17:51;99418.88;;;8.53;92.45
71361;BME280;59166;48.908;1.870;2023-04-23T22:22:52;99410.25;;;8.46;93.88
71361;BME280;59166;48.908;1.870;2023-04-23T22:27:52;99415.88;;;8.34;95.03
71361;BME280;59166;48.908;1.870;2023-04-23T22:32:55;99421.00;;;8.25;95.12
71361;BME280;59166;48.908;1.870;2023-04-23T22:37:55;99429.31;;;8.19;96.17
71361;BME280;59166;48.908;1.870;2023-04-23T22:42:56;99429.53;;;8.07;96.99
71361;BME280;59166;48.908;1.870;2023-04-23T22:47:59;99428.19;;;8.00;97.86
71361;BME280;59166;48.908;1.870;2023-04-23T22:53:00;99424.66;;;7.94;99.07
71361;BME280;59166;48.908;1.870;2023-04-23T22:58:00;99419.53;;;7.88;99.60
71361;BME280;59166;48.908;1.870;2023-04-23T23:03:03;99427.88;;;7.86;99.76
71361;BME280;59166;48.908;1.870;2023-04-23T23:08:04;99430.81;;;7.85;99.05
71361;BME280;59166;48.908;1.870;2023-04-23T23:13:05;99438.94;;;7.95;99.88
71361;BME280;59166;48.908;1.870;2023-04-23T23:18:07;99442.44;;;8.00;99.71
71361;BME280;59166;48.908;1.870;2023-04-23T23:23:08;99447.31;;;8.08;100.00
71361;BME280;59166;48.908;1.870;2023-04-23T23:28:09;99454.06;;;8.16;99.75
71361;BME280;59166;48.908;1.870;2023-04-23T23:33:12;99459.72;;;8.24;99.47
71361;BME280;59166;48.908;1.870;2023-04-23T23:38:13;99468.06;;;8.28;99.66
71361;BME280;59166;48.908;1.870;2023-04-23T23:43:13;99468.88;;;8.28;99.15
71361;BME280;59166;48.908;1.870;2023-04-23T23:48:16;99466.72;;;8.25;98.84
71361;BME280;59166;48.908;1.870;2023-04-23T23:53:18;99473.16;;;8.24;99.25
71361;BME280;59166;48.908;1.870;2023-04-23T23:58:20;99473.16;;;8.24;99.70
